Time;durP1;ratioP1;P1;durP2;ratioP2;P2;SDS_P1;SDS_P2;PMS_P1;PMS_P2;Temp;Humidity;BMP_temperature;BMP_pressure;BME280_temperature;BME280_humidity;BME280_pressure;Samples;Min_cycle;Max_cycle;Signal;HPM_P1;HPM_P2
2024/01/17 00:00:00;;;;;;;20.03;10.20;;;;;;;0.26;100.00;101573.56;2086862;28;20254;-65
2024/01/17 00:01:00;;;;;;;16.87;9.67;;;;;;;0.21;100.00;101578.47;2087115;28;20225;-65
2024/01/17 00:02:01;;;;;;;18.97;10.53;;;;;;;0.20;100.00;101572.19;2086481;28;20302;-65
2024/01/17 00:03:02;;;;;;;17.63;10.33;;;;;;;0.09;100.00;101556.63;2087070;28;20728;-64
2024/01/17 00:04:03;;;;;;;19.45;10.88;;;;;;;0.13;100.00;101566.53;2085595;28;20188;-64
2024/01/17 00:05:04;;;;;;;16.27;9.52;;;;;;;-0.21;100.00;101517.06;2088289;28;20185;-65
2024/01/17 00:06:05;;;;;;;17.40;9.87;;;;;;;0.10;100.00;101566.38;2086596;28;20192;-64
2024/01/17 00:07:06;;;;;;;23.37;10.87;;;;;;;0.10;100.00;101560.94;2086416;28;20641;-65
2024/01/17 00:08:08;;;;;;;18.75;9.73;;;;;;;0.09;100.00;101562.88;2086606;28;20234;-65
2024/01/17 00:09:09;;;;;;;18.55;10.63;;;;;;;-0.71;100.00;101423.97;2086899;28;20708;-65
2024/01/17 00:10:09;;;;;;;18.55;10.43;;;;;;;0.09;100.00;101556.63;2086408;28;20592;-64
2024/01/17 00:11:10;;;;;;;15.93;10.20;;;;;;;-0.35;100.00;101497.56;2088153;28;20206;-65
2024/01/17 00:12:10;;;;;;;21.80;11.03;;;;;;;0.07;100.00;101562.41;2086072;28;20192;-65
2024/01/17 00:13:11;;;;;;;17.53;10.50;;;;;;;-0.08;100.00;101537.78;2085753;28;20192;-65
2024/01/17 00:14:12;;;;;;;18.23;10.47;;;;;;;0.06;100.00;101560.03;2086801;28;20216;-65
2024/01/17 00:15:12;;;;;;;15.70;10.00;;;;;;;-0.18;100.00;101524.59;2086392;28;20204;-65
2024/01/17 00:16:21;;;;;;;13.83;8.10;;;;;;;-0.06;100.00;101568.19;2086397;28;20267;-65
2024/01/17 00:17:21;;;;;;;12.68;7.97;;;;;;;-0.09;100.00;101582.50;2086239;28;20339;-64
2024/01/17 00:18:22;;;;;;;10.07;5.83;;;;;;;-0.08;100.00;101568.53;2087621;28;20192;-65
2024/01/17 00:19:22;;;;;;;20.20;10.13;;;;;;;-0.02;100.00;101566.38;2086079;28;20199;-65
2024/01/17 00:20:23;;;;;;;12.97;6.43;;;;;;;-0.21;100.00;101553.28;2086286;28;20219;-65
2024/01/17 00:21:23;;;;;;;9.50;5.07;;;;;;;-0.08;100.00;101570.47;2086195;28;20208;-65
2024/01/17 00:22:24;;;;;;;15.07;8.67;;;;;;;-0.09;100.00;101566.94;2086340;28;20192;-65
2024/01/17 00:23:24;;;;;;;13.97;7.73;;;;;;;-0.08;100.00;101568.53;2086720;28;20636;-65
2024/01/17 00:24:25;;;;;;;15.23;9.00;;;;;;;-0.20;100.00;101548.66;2088177;28;20257;-64
2024/01/17 00:25:25;;;;;;;15.03;7.97;;;;;;;-0.40;100.00;101516.84;2086035;28;20571;-64
2024/01/17 00:26:26;;;;;;;17.80;9.17;;;;;;;-0.04;100.00;101569.44;2086502;28;20630;-65
2024/01/17 00:27:26;;;;;;;12.27;4.83;;;;;;;-0.04;100.00;101574.09;2086426;28;20192;-65
2024/01/17 00:28:27;;;;;;;6.63;3.47;;;;;;;-0.12;100.00;101566.81;2086717;28;20208;-65
2024/01/17 00:29:27;;;;;;;5.43;3.70;;;;;;;-0.12;100.00;101555.91;2086691;28;20258;-65
2024/01/17 00:30:28;;;;;;;9.37;4.60;;;;;;;-0.16;100.00;101563.97;2087460;28;20213;-65
2024/01/17 00:31:28;;;;;;;8.67;5.00;;;;;;;-0.70;100.00;101474.56;2086453;28;20662;-65
2024/01/17 00:32:31;;;;;;;10.37;6.23;;;;;;;-0.16;100.00;101561.25;2086257;28;20279;-65
2024/01/17 00:33:32;;;;;;;10.32;6.72;;;;;;;-0.06;100.00;101557.28;2085886;28;20192;-65
2024/01/17 00:34:32;;;;;;;11.90;6.10;;;;;;;-0.57;100.00;101469.94;2086220;28;20185;-65
2024/01/17 00:35:33;;;;;;;10.03;5.70;;;;;;;-0.06;100.00;101554.56;2085953;28;20613;-65
2024/01/17 00:36:33;;;;;;;7.50;4.53;;;;;;;-0.14;100.00;101537.19;2087771;28;20670;-65
2024/01/17 00:37:34;;;;;;;6.73;4.23;;;;;;;-0.08;100.00;101559.56;2085885;28;20200;-65
2024/01/17 00:38:34;;;;;;;9.43;4.23;;;;;;;-0.04;100.00;101560.47;2085701;28;20650;-65
2024/01/17 00:39:35;;;;;;;6.70;3.67;;;;;;;-0.02;100.00;101559.00;2086209;28;20192;-64
2024/01/17 00:40:35;;;;;;;10.20;5.10;;;;;;;-0.03;100.00;101549.25;2085965;28;20182;-65
2024/01/17 00:41:36;;;;;;;10.07;6.10;;;;;;;-0.04;100.00;101552.31;2085988;28;20190;-65
2024/01/17 00:42:36;;;;;;;8.80;6.00;;;;;;;-0.14;100.00;101536.41;2087049;28;20281;-65
2024/01/17 00:43:37;;;;;;;13.17;6.37;;;;;;;0.01;100.00;101555.59;2085849;28;20205;-65
2024/01/17 00:44:40;;;;;;;10.47;5.73;;;;;;;0.03;100.00;101558.78;2086242;28;20199;-65
2024/01/17 00:45:40;;;;;;;8.18;5.75;;;;;;;0.05;100.00;101558.44;2086556;28;20191;-65
2024/01/17 00:46:41;;;;;;;7.40;3.87;;;;;;;-0.57;100.00;101482.41;2086156;28;20678;-65
2024/01/17 00:47:42;;;;;;;7.60;4.00;;;;;;;-0.01;100.00;101551.63;2085535;28;20264;-65
2024/01/17 00:48:42;;;;;;;4.45;2.60;;;;;;;-0.05;100.00;101540.59;2086893;28;20222;-65
2024/01/17 00:49:43;;;;;;;8.10;4.40;;;;;;;-0.12;100.00;101542.28;2086026;28;20229;-65
2024/01/17 00:50:44;;;;;;;7.57;3.77;;;;;;;-0.18;100.00;101540.94;2085852;28;20296;-65
2024/01/17 00:51:44;;;;;;;9.67;5.53;;;;;;;-0.11;100.00;101554.78;2086124;28;20624;-65
2024/01/17 00:52:45;;;;;;;6.43;3.33;;;;;;;-0.10;100.00;101557.16;2085568;28;20234;-65
2024/01/17 00:53:45;;;;;;;10.97;4.63;;;;;;;-0.10;100.00;101565.34;2086423;28;20188;-65
2024/01/17 00:54:46;;;;;;;9.70;4.40;;;;;;;-0.07;100.00;101578.31;2087887;28;20635;-65
2024/01/17 00:55:46;;;;;;;6.07;4.07;;;;;;;-0.08;100.00;101576.72;2086186;28;20708;-65
2024/01/17 00:56:47;;;;;;;8.13;4.83;;;;;;;-0.09;100.00;101577.06;2086494;28;20316;-65
2024/01/17 00:57:47;;;;;;;3.77;2.50;;;;;;;-0.29;100.00;101562.34;2085934;28;20603;-65
2024/01/17 00:58:48;;;;;;;4.60;1.90;;;;;;;-0.35;100.00;101581.97;2085136;28;20756;-64
2024/01/17 00:59:49;;;;;;;4.77;2.30;;;;;;;-0.50;100.00;101569.78;2085823;28;20195;-65
2024/01/17 01:00:49;;;;;;;7.17;2.37;;;;;;;-0.47;100.00;101558.22;2087905;28;20655;-65
2024/01/17 01:01:50;;;;;;;3.93;2.73;;;;;;;-0.42;100.00;101568.91;2085518;28;20296;-65
2024/01/17 01:02:53;;;;;;;4.43;2.40;;;;;;;-0.82;100.00;101507.16;2086081;28;20302;-65
2024/01/17 01:03:53;;;;;;;3.75;2.45;;;;;;;-0.38;100.00;101564.38;2086307;28;20280;-65
2024/01/17 01:04:54;;;;;;;10.20;3.50;;;;;;;-0.29;100.00;101562.34;2086575;28;20189;-64
2024/01/17 01:05:54;;;;;;;6.20;3.57;;;;;;;-0.61;100.00;101497.03;2086006;28;20689;-65
2024/01/17 01:06:55;;;;;;;6.00;3.80;;;;;;;-0.36;100.00;101542.25;2078804;28;20203;-64
2024/01/17 01:07:55;;;;;;;6.07;3.43;;;;;;;-0.53;100.00;101523.38;2085161;28;20199;-65
2024/01/17 01:08:56;;;;;;;4.60;2.40;;;;;;;-0.40;100.00;101560.41;2085923;28;20211;-65
2024/01/17 01:09:57;;;;;;;7.07;2.73;;;;;;;-0.46;100.00;101562.53;2086400;28;20222;-65
2024/01/17 01:10:57;;;;;;;6.00;3.03;;;;;;;-0.47;100.00;101552.78;2085870;28;20187;-65
2024/01/17 01:11:58;;;;;;;4.70;2.60;;;;;;;-0.48;100.00;101564.00;2085841;28;20224;-65
2024/01/17 01:12:58;;;;;;;4.97;2.90;;;;;;;-0.46;100.00;101567.19;2087059;28;20305;-65
2024/01/17 01:14:01;;;;;;;6.97;3.90;;;;;;;-0.39;100.00;101576.38;2085741;28;20358;-65
2024/01/17 01:15:02;;;;;;;6.60;4.20;;;;;;;-0.68;100.00;101518.56;2085556;28;20623;-65
2024/01/17 01:16:03;;;;;;;5.37;2.60;;;;;;;-0.48;100.00;101568.66;2086458;28;20192;-65
2024/01/17 01:17:04;;;;;;;8.38;2.72;;;;;;;-0.70;100.00;101554.28;2085801;28;20226;-64
2024/01/17 01:18:04;;;;;;;5.73;2.77;;;;;;;-0.90;100.00;101581.53;2085504;28;20196;-65
2024/01/17 01:19:05;;;;;;;7.30;2.90;;;;;;;-0.84;100.00;101566.56;2087569;28;20184;-65
2024/01/17 01:20:07;;;;;;;4.63;2.90;;;;;;;-0.88;100.00;101558.28;2086347;28;20206;-65
2024/01/17 01:21:08;;;;;;;5.20;2.72;;;;;;;-0.96;100.00;101563.81;2085958;28;20199;-65
2024/01/17 01:22:08;;;;;;;5.37;3.00;;;;;;;-1.04;100.00;101553.00;2084469;28;20249;-65
2024/01/17 01:23:09;;;;;;;4.20;2.33;;;;;;;-2.35;100.00;101350.75;2084764;28;20211;-65
2024/01/17 01:24:09;;;;;;;5.50;2.73;;;;;;;-0.99;100.00;101556.28;2085731;28;20210;-65
2024/01/17 01:25:10;;;;;;;4.63;2.83;;;;;;;-1.96;100.00;101409.28;2087921;28;20263;-65
2024/01/17 01:26:11;;;;;;;4.73;3.17;;;;;;;-1.85;100.00;101424.06;2086497;28;20200;-65
2024/01/17 01:27:11;;;;;;;5.53;3.30;;;;;;;-0.98;100.00;101555.97;2086153;28;20251;-65
2024/01/17 01:28:12;;;;;;;7.10;3.10;;;;;;;-0.93;100.00;101555.78;2085737;28;20184;-65
2024/01/17 01:29:12;;;;;;;4.77;2.93;;;;;;;-0.88;100.00;101566.44;2084793;28;20744;-65
2024/01/17 01:30:13;;;;;;;6.43;3.73;;;;;;;-1.71;100.00;101451.78;2085752;28;20191;-65
2024/01/17 01:31:13;;;;;;;7.87;3.33;;;;;;;-0.92;100.00;101570.19;2087650;28;20187;-64
2024/01/17 01:32:14;;;;;;;8.20;3.60;;;;;;;-0.89;100.00;101563.28;2086623;28;20252;-65
2024/01/17 01:33:14;;;;;;;9.03;4.30;;;;;;;-1.02;100.00;101548.81;2085233;28;20252;-65
2024/01/17 01:34:15;;;;;;;6.53;3.43;;;;;;;-0.77;100.00;101555.94;2086373;28;20668;-65
2024/01/17 01:35:15;;;;;;;6.43;3.03;;;;;;;-0.76;100.00;101546.66;2085311;28;20283;-65
2024/01/17 01:36:16;;;;;;;6.23;3.47;;;;;;;-0.72;100.00;101539.41;2085702;28;20220;-65
2024/01/17 01:37:16;;;;;;;4.70;2.70;;;;;;;-0.98;100.00;101489.88;2087310;28;20310;-65
2024/01/17 01:38:17;;;;;;;6.37;3.10;;;;;;;-0.63;100.00;101542.06;2085559;28;20233;-65
2024/01/17 01:39:17;;;;;;;5.03;2.53;;;;;;;-1.03;100.00;101490.06;2085962;28;20744;-65
2024/01/17 01:40:18;;;;;;;6.63;2.57;;;;;;;-0.82;100.00;101528.94;2085171;28;20253;-65
2024/01/17 01:41:18;;;;;;;4.60;3.00;;;;;;;-0.86;100.00;101512.47;2086285;28;20275;-64
2024/01/17 01:42:19;;;;;;;5.17;2.50;;;;;;;-0.63;100.00;101547.50;2085874;28;20246;-65
2024/01/17 01:43:21;;;;;;;5.10;2.90;;;;;;;-0.60;100.00;101548.41;2087258;28;20186;-65
2024/01/17 01:44:21;;;;;;;4.78;2.60;;;;;;;-0.50;100.00;101558.09;2086313;28;20350;-65
2024/01/17 01:45:22;;;;;;;7.83;3.60;;;;;;;-0.46;100.00;101542.69;2086077;28;20269;-65
2024/01/17 01:46:29;;;;;;;7.97;3.40;;;;;;;-1.02;100.00;101447.34;2085963;28;20248;-65
2024/01/17 01:47:30;;;;;;;5.97;3.85;;;;;;;-0.22;100.00;101558.28;2085651;28;20196;-65
2024/01/17 01:48:31;;;;;;;7.13;3.67;;;;;;;-0.28;100.00;101558.50;2085083;28;20287;-64
2024/01/17 01:49:32;;;;;;;7.35;2.53;;;;;;;-0.17;100.00;101555.34;2086024;28;20969;-65
2024/01/17 01:50:33;;;;;;;2.33;1.90;;;;;;;-0.25;100.00;101557.81;2087425;28;20590;-65
2024/01/17 01:51:34;;;;;;;3.57;2.43;;;;;;;-0.38;100.00;101550.78;2086127;28;20223;-65
2024/01/17 01:52:37;;;;;;;4.68;2.38;;;;;;;-1.59;100.00;101352.06;2084995;28;20196;-64
2024/01/17 01:53:41;;;;;;;5.75;2.72;;;;;;;-0.49;100.00;101529.75;2085729;28;20200;-65
2024/01/17 01:54:41;;;;;;;2.83;1.88;;;;;;;-0.44;100.00;101545.88;2086630;28;20274;-65
2024/01/17 01:55:42;;;;;;;4.07;2.50;;;;;;;-1.14;100.00;101436.44;2086158;28;20511;-64
2024/01/17 01:56:43;;;;;;;3.23;1.73;;;;;;;-0.45;100.00;101539.59;2087537;28;20198;-65
2024/01/17 01:57:50;;;;;;;7.32;2.65;;;;;;;-0.98;100.00;101463.47;2085522;28;20206;-64
2024/01/17 01:58:52;;;;;;;5.05;2.53;;;;;;;-0.48;100.00;101525.09;2085881;28;20192;-64
2024/01/17 01:59:54;;;;;;;4.05;2.10;;;;;;;-0.47;100.00;101531.00;2086061;28;20279;-64
2024/01/17 02:00:56;;;;;;;3.35;2.00;;;;;;;-0.36;100.00;101526.72;2085749;28;20737;-65
2024/01/17 02:01:58;;;;;;;3.30;2.00;;;;;;;-0.29;100.00;101526.94;2085882;28;20626;-65
2024/01/17 02:02:59;;;;;;;3.60;2.28;;;;;;;-0.23;100.00;101516.63;2085455;28;20285;-65
2024/01/17 02:04:01;;;;;;;3.33;2.17;;;;;;;-0.86;100.00;101421.91;2087462;28;20187;-65
2024/01/17 02:05:04;;;;;;;5.65;2.75;;;;;;;-0.17;100.00;101518.81;2085483;28;20183;-65
2024/01/17 02:06:04;;;;;;;5.38;2.55;;;;;;;-0.01;100.00;101517.00;2084888;28;20192;-65
2024/01/17 02:07:07;;;;;;;5.97;2.83;;;;;;;0.07;100.00;101518.03;2085210;28;20200;-65
2024/01/17 02:08:08;;;;;;;4.72;2.22;;;;;;;0.14;100.00;101516.31;2083582;28;20180;-65
2024/01/17 02:09:08;;;;;;;4.03;2.60;;;;;;;-0.57;100.00;101404.59;2085874;28;20192;-65
2024/01/17 02:10:09;;;;;;;4.90;2.27;;;;;;;0.18;100.00;101519.16;2086370;28;20208;-65
2024/01/17 02:11:10;;;;;;;3.63;1.80;;;;;;;0.14;100.00;101518.25;2086900;28;20201;-65
2024/01/17 02:12:11;;;;;;;3.25;1.80;;;;;;;0.06;100.00;101511.00;2085436;28;20181;-65
2024/01/17 02:13:11;;;;;;;4.67;3.10;;;;;;;-0.02;100.00;101511.88;2085871;28;20655;-64
2024/01/17 02:14:13;;;;;;;3.27;2.10;;;;;;;-0.11;100.00;101506.53;2085941;28;20181;-65
2024/01/17 02:15:14;;;;;;;4.00;2.13;;;;;;;-0.54;100.00;101429.22;2085859;28;20184;-65
2024/01/17 02:16:15;;;;;;;3.97;1.80;;;;;;;0.00;100.00;101517.81;2085833;28;20181;-65
2024/01/17 02:17:15;;;;;;;3.47;2.47;;;;;;;0.06;100.00;101516.44;2086917;28;20650;-65
2024/01/17 02:18:16;;;;;;;4.70;2.50;;;;;;;0.09;100.00;101502.94;2084963;28;20198;-65
2024/01/17 02:19:17;;;;;;;4.03;2.03;;;;;;;-0.04;100.00;101474.06;2085307;28;20691;-65
2024/01/17 02:20:17;;;;;;;3.97;2.10;;;;;;;0.21;100.00;101537.56;2085445;28;20706;-65
2024/01/17 02:21:18;;;;;;;4.63;2.03;;;;;;;0.13;100.00;101508.47;2085045;28;20804;-65
2024/01/17 02:22:19;;;;;;;4.27;2.13;;;;;;;0.23;100.00;101514.28;2085428;28;20209;-65
2024/01/17 02:23:26;;;;;;;4.47;2.23;;;;;;;0.21;100.00;101526.66;2087238;28;20314;-65
2024/01/17 02:24:28;;;;;;;4.40;2.30;;;;;;;0.13;100.00;101527.56;2084653;28;20201;-65
2024/01/17 02:25:29;;;;;;;3.22;2.30;;;;;;;-0.10;100.00;101529.16;2084951;28;20198;-65
2024/01/17 02:26:29;;;;;;;6.03;2.67;;;;;;;-0.06;100.00;101527.31;2085779;28;20690;-64
2024/01/17 02:27:30;;;;;;;4.83;2.97;;;;;;;0.00;100.00;101543.09;2084089;28;20205;-65
2024/01/17 02:28:31;;;;;;;4.30;2.33;;;;;;;0.06;100.00;101535.53;2085280;28;20185;-65
2024/01/17 02:29:31;;;;;;;3.17;2.60;;;;;;;-0.17;100.00;101488.84;2087099;28;20186;-65
2024/01/17 02:30:32;;;;;;;4.07;2.53;;;;;;;0.17;100.00;101531.19;2085983;28;20793;-65
2024/01/17 02:31:32;;;;;;;4.03;2.50;;;;;;;0.09;100.00;101519.28;2084966;28;20647;-65
2024/01/17 02:32:35;;;;;;;5.13;2.40;;;;;;;0.00;100.00;101510.41;2085350;28;20192;-65
2024/01/17 02:33:36;;;;;;;5.65;3.38;;;;;;;0.02;100.00;101520.97;2085627;28;20194;-65
2024/01/17 02:34:36;;;;;;;5.43;3.00;;;;;;;-0.25;100.00;101499.84;2087511;28;20208;-64
2024/01/17 02:35:37;;;;;;;5.57;3.47;;;;;;;-0.20;100.00;101530.38;2088687;28;20189;-65
2024/01/17 02:36:38;;;;;;;3.87;2.33;;;;;;;-0.17;100.00;101530.84;2088072;28;20599;-65
2024/01/17 02:37:38;;;;;;;5.57;2.80;;;;;;;-0.07;100.00;101544.81;2086805;28;20775;-65
2024/01/17 02:38:39;;;;;;;5.10;2.70;;;;;;;0.01;100.00;101538.47;2086587;28;20570;-65
2024/01/17 02:39:39;;;;;;;4.30;2.80;;;;;;;-0.73;100.00;101412.63;2086618;28;20644;-65
2024/01/17 02:40:40;;;;;;;4.10;2.67;;;;;;;0.01;100.00;101528.34;2087073;28;20184;-65
2024/01/17 02:41:44;;;;;;;4.60;3.20;;;;;;;-0.56;100.00;101445.88;2088518;28;20615;-65
2024/01/17 02:42:50;;;;;;;5.97;3.70;;;;;;;0.02;100.00;101529.94;2086778;28;20325;-65
2024/01/17 02:43:51;;;;;;;5.93;3.10;;;;;;;0.04;100.00;101522.22;2086862;28;20284;-65
2024/01/17 02:44:51;;;;;;;6.70;3.43;;;;;;;0.06;100.00;101525.38;2089353;28;20185;-65
2024/01/17 02:45:52;;;;;;;4.53;3.00;;;;;;;0.06;100.00;101525.38;2086466;28;20192;-64
2024/01/17 02:46:52;;;;;;;6.27;2.97;;;;;;;0.11;100.00;101529.84;2086512;28;20193;-65
2024/01/17 02:47:52;;;;;;;5.93;3.17;;;;;;;0.21;100.00;101532.13;2086099;28;20196;-65
2024/01/17 02:48:53;;;;;;;6.43;3.60;;;;;;;-0.36;100.00;101434.13;2085611;28;20309;-65
2024/01/17 02:49:54;;;;;;;5.13;3.30;;;;;;;-0.31;100.00;101433.09;2086626;28;20189;-65
2024/01/17 02:50:54;;;;;;;7.07;3.53;;;;;;;0.23;100.00;101513.47;2088982;28;20269;-65
2024/01/17 02:51:55;;;;;;;3.30;2.10;;;;;;;0.37;100.00;101536.53;2086451;28;20195;-65
2024/01/17 02:52:55;;;;;;;3.50;2.40;;;;;;;0.31;100.00;101521.53;2087010;28;20198;-65
2024/01/17 02:53:56;;;;;;;5.03;2.97;;;;;;;0.39;100.00;101537.00;2087007;28;20694;-65
2024/01/17 02:54:56;;;;;;;4.03;2.27;;;;;;;0.33;100.00;101543.00;2087154;28;20699;-64
2024/01/17 02:55:57;;;;;;;9.13;3.20;;;;;;;0.35;100.00;101535.28;2086066;28;20243;-65
2024/01/17 02:56:57;;;;;;;5.47;2.90;;;;;;;0.32;100.00;101536.75;2088503;28;20195;-65
2024/01/17 02:58:00;;;;;;;7.30;3.17;;;;;;;0.36;100.00;101534.16;2086084;28;20195;-65
2024/01/17 02:59:00;;;;;;;8.23;3.72;;;;;;;0.34;100.00;101537.22;2085938;28;20192;-65
2024/01/17 03:00:01;;;;;;;4.93;2.63;;;;;;;0.38;100.00;101543.59;2086832;28;20405;-65
2024/01/17 03:01:02;;;;;;;5.37;2.93;;;;;;;0.41;100.00;101526.53;2086744;28;20180;-65
2024/01/17 03:02:02;;;;;;;5.50;3.30;;;;;;;0.56;100.00;101547.66;2086249;28;20562;-65
2024/01/17 03:03:04;;;;;;;5.63;3.10;;;;;;;0.58;100.00;101547.31;2088000;28;20186;-65
2024/01/17 03:04:04;;;;;;;5.63;2.97;;;;;;;0.59;100.00;101537.97;2086157;28;20189;-65
2024/01/17 03:05:07;;;;;;;5.57;3.03;;;;;;;0.38;100.00;101523.69;2087108;28;20250;-65
2024/01/17 03:06:07;;;;;;;4.85;2.65;;;;;;;0.36;100.00;101521.31;2086175;28;20197;-65
2024/01/17 03:07:08;;;;;;;6.03;3.10;;;;;;;0.31;100.00;101520.75;2086384;28;20288;-64
2024/01/17 03:08:08;;;;;;;8.27;3.60;;;;;;;0.30;100.00;101525.41;2084890;28;20561;-64
2024/01/17 03:09:10;;;;;;;4.67;3.00;;;;;;;0.36;100.00;101534.94;2087644;28;20188;-65
2024/01/17 03:10:12;;;;;;;5.78;3.05;;;;;;;0.33;100.00;101526.66;2086365;28;20211;-65
2024/01/17 03:11:12;;;;;;;5.88;3.28;;;;;;;0.08;100.00;101485.00;2086749;28;20257;-65
2024/01/17 03:12:13;;;;;;;5.43;3.33;;;;;;;0.40;100.00;101527.66;2087160;28;20266;-64
2024/01/17 03:13:14;;;;;;;5.43;2.77;;;;;;;0.46;100.00;101529.03;2086661;28;20200;-65
2024/01/17 03:14:14;;;;;;;6.67;2.93;;;;;;;0.43;100.00;101532.41;2086079;28;20186;-65
2024/01/17 03:15:15;;;;;;;5.63;3.03;;;;;;;0.44;100.00;101522.31;2088834;28;20181;-65
2024/01/17 03:16:19;;;;;;;5.67;2.83;;;;;;;0.45;100.00;101523.91;2086836;28;20197;-65
2024/01/17 03:17:20;;;;;;;6.50;3.25;;;;;;;0.46;100.00;101530.94;2086645;28;20292;-65
2024/01/17 03:18:21;;;;;;;5.38;3.22;;;;;;;0.37;100.00;101514.72;2086226;28;20209;-65
2024/01/17 03:19:21;;;;;;;5.13;3.23;;;;;;;0.46;100.00;101530.94;2085852;28;20280;-65
2024/01/17 03:20:22;;;;;;;4.83;2.83;;;;;;;0.49;100.00;101520.16;2086783;28;20530;-65
2024/01/17 03:21:22;;;;;;;5.07;2.53;;;;;;;0.53;100.00;101526.50;2087876;28;20180;-65
2024/01/17 03:22:23;;;;;;;3.43;2.80;;;;;;;0.52;100.00;101510.50;2087759;28;20239;-64
2024/01/17 03:23:24;;;;;;;5.63;3.03;;;;;;;0.49;100.00;101513.91;2085923;28;20734;-65
2024/01/17 03:24:24;;;;;;;5.70;3.17;;;;;;;0.40;100.00;101497.69;2086787;28;20219;-65
2024/01/17 03:25:26;;;;;;;5.90;2.90;;;;;;;0.38;100.00;101502.69;2086968;28;20618;-65
2024/01/17 03:26:26;;;;;;;4.47;2.60;;;;;;;0.52;100.00;101510.50;2086049;28;20659;-65
2024/01/17 03:27:27;;;;;;;5.43;3.17;;;;;;;-0.32;100.00;101389.88;2087238;28;20256;-65
2024/01/17 03:28:27;;;;;;;6.00;2.77;;;;;;;0.58;100.00;101520.03;2087147;28;20272;-65
2024/01/17 03:29:28;;;;;;;4.13;2.70;;;;;;;0.60;100.00;101521.28;2086385;28;20675;-65
2024/01/17 03:30:30;;;;;;;4.17;2.40;;;;;;;0.26;100.00;101469.19;2085468;28;20201;-65
2024/01/17 03:31:31;;;;;;;5.65;3.53;;;;;;;0.43;100.00;101516.06;2086848;28;20284;-65
2024/01/17 03:32:31;;;;;;;4.50;2.33;;;;;;;0.42;100.00;101517.19;2086533;28;20663;-65
2024/01/17 03:33:31;;;;;;;3.63;2.47;;;;;;;0.43;100.00;101516.06;2087296;28;20186;-65
2024/01/17 03:34:34;;;;;;;4.22;2.53;;;;;;;0.52;100.00;101519.47;2084524;28;20196;-65
2024/01/17 03:35:34;;;;;;;5.82;2.83;;;;;;;0.56;100.00;101528.56;2082624;28;20287;-65
2024/01/17 03:36:35;;;;;;;8.17;3.03;;;;;;;0.59;100.00;101535.25;2085742;28;20198;-65
2024/01/17 03:37:36;;;;;;;3.83;2.50;;;;;;;0.44;100.00;101504.03;2086143;28;20201;-64
2024/01/17 03:38:37;;;;;;;4.22;2.85;;;;;;;0.56;100.00;101523.09;2086382;28;20196;-65
2024/01/17 03:39:43;;;;;;;4.25;2.97;;;;;;;0.56;100.00;101523.09;2086390;28;20194;-65
2024/01/17 03:40:44;;;;;;;5.63;2.50;;;;;;;0.56;100.00;101527.75;2088435;28;20182;-64
2024/01/17 03:41:45;;;;;;;4.17;2.47;;;;;;;0.59;100.00;101529.81;2086176;28;20285;-65
2024/01/17 03:42:45;;;;;;;5.17;2.67;;;;;;;0.60;100.00;101534.13;2085895;28;20467;-65
2024/01/17 03:43:46;;;;;;;5.77;2.83;;;;;;;0.63;100.00;101549.81;2086462;28;20192;-65
2024/01/17 03:44:47;;;;;;;3.90;2.40;;;;;;;0.61;100.00;101552.88;2085376;28;24610;-65
2024/01/17 03:45:48;;;;;;;5.53;3.10;;;;;;;0.36;100.00;101534.16;2085223;28;20864;-65
2024/01/17 03:46:49;;;;;;;5.65;2.45;;;;;;;0.40;100.00;101529.59;2087703;28;20240;-64
2024/01/17 03:47:49;;;;;;;4.93;2.80;;;;;;;-0.14;100.00;101447.28;2086419;28;20246;-65
2024/01/17 03:48:50;;;;;;;3.93;2.67;;;;;;;0.37;100.00;101525.63;2085793;28;20243;-65
2024/01/17 03:49:51;;;;;;;4.88;2.95;;;;;;;0.51;100.00;101542.44;2086787;28;20206;-65
2024/01/17 03:50:51;;;;;;;6.33;2.67;;;;;;;-0.39;100.00;101413.00;2086511;28;20216;-65
2024/01/17 03:51:53;;;;;;;5.17;2.40;;;;;;;0.58;100.00;101552.75;2085856;28;20186;-65
2024/01/17 03:52:53;;;;;;;3.47;2.35;;;;;;;0.04;100.00;101473.16;2088364;28;20268;-65
2024/01/17 03:53:54;;;;;;;3.30;2.03;;;;;;;0.54;100.00;101551.84;2086814;28;20194;-65
2024/01/17 03:54:54;;;;;;;4.33;2.60;;;;;;;0.56;100.00;101552.28;2086231;28;20642;-65
2024/01/17 03:55:54;;;;;;;3.23;2.00;;;;;;;-0.28;100.00;101408.72;2085833;28;20263;-65
2024/01/17 03:56:55;;;;;;;3.67;2.43;;;;;;;0.11;100.00;101462.47;2086605;28;20211;-65
2024/01/17 03:57:55;;;;;;;4.53;2.90;;;;;;;0.66;100.00;101554.56;2086146;28;20282;-65
2024/01/17 03:58:56;;;;;;;7.97;2.20;;;;;;;0.70;100.00;101569.91;2087500;28;20183;-65
2024/01/17 03:59:56;;;;;;;6.80;2.90;;;;;;;0.77;100.00;101589.22;2086422;28;20198;-65
2024/01/17 04:00:57;;;;;;;3.77;2.20;;;;;;;0.83;100.00;101587.06;2085829;28;20208;-65
2024/01/17 04:01:57;;;;;;;4.27;2.90;;;;;;;0.85;100.00;101573.84;2086161;28;20552;-65
2024/01/17 04:02:58;;;;;;;4.10;2.23;;;;;;;0.89;100.00;101561.91;2086231;28;20418;-65
2024/01/17 04:03:58;;;;;;;11.97;2.73;;;;;;;0.93;100.00;101562.81;2086940;28;20189;-65
2024/01/17 04:04:59;;;;;;;4.23;2.30;;;;;;;0.89;100.00;101561.13;2088242;28;20213;-65
2024/01/17 04:05:59;;;;;;;3.07;2.27;;;;;;;0.94;100.00;101572.56;2085925;28;20212;-65
2024/01/17 04:07:00;;;;;;;3.77;2.27;;;;;;;1.00;100.00;101573.16;2086386;28;20193;-65
2024/01/17 04:08:00;;;;;;;4.97;2.60;;;;;;;1.01;100.00;101572.00;2085810;28;20205;-64
2024/01/17 04:09:01;;;;;;;5.23;2.30;;;;;;;1.05;100.00;101575.63;2086145;28;20580;-65
2024/01/17 04:10:01;;;;;;;4.33;2.93;;;;;;;0.60;100.00;101502.19;2086616;28;20737;-65
2024/01/17 04:11:02;;;;;;;4.07;2.63;;;;;;;0.87;100.00;101556.00;2087873;28;20665;-65
2024/01/17 04:12:03;;;;;;;5.37;3.17;;;;;;;1.10;100.00;101578.13;2085536;28;20285;-65
2024/01/17 04:13:03;;;;;;;5.67;3.60;;;;;;;1.07;100.00;101581.53;2086748;28;20192;-65
2024/01/17 04:14:04;;;;;;;7.63;2.73;;;;;;;1.08;100.00;101578.47;2086517;28;20206;-65
2024/01/17 04:15:06;;;;;;;3.90;2.78;;;;;;;1.10;100.00;101570.75;2086312;28;20190;-65
2024/01/17 04:16:06;;;;;;;8.25;3.30;;;;;;;1.07;100.00;101562.44;2085118;28;20189;-65
2024/01/17 04:17:09;;;;;;;6.40;3.17;;;;;;;1.14;100.00;101568.88;2086685;28;20790;-65
2024/01/17 04:18:10;;;;;;;6.68;2.90;;;;;;;0.87;100.00;101519.72;2101281;28;20254;-65
2024/01/17 04:19:10;;;;;;;6.23;2.93;;;;;;;1.07;100.00;101551.50;2102429;28;20761;-65
2024/01/17 04:20:11;;;;;;;6.30;3.00;;;;;;;1.20;100.00;101566.72;2086283;28;20193;-65
2024/01/17 04:21:19;;;;;;;5.33;3.00;;;;;;;1.24;100.00;101562.16;2086329;28;20242;-65
2024/01/17 04:22:20;;;;;;;5.28;3.15;;;;;;;1.25;100.00;101552.81;2086232;28;20589;-65
2024/01/17 04:23:20;;;;;;;4.73;2.90;;;;;;;1.26;100.00;101557.13;2086277;28;20222;-65
2024/01/17 04:24:21;;;;;;;5.73;2.77;;;;;;;1.23;100.00;101536.00;2088060;28;20619;-65
2024/01/17 04:25:22;;;;;;;12.00;3.43;;;;;;;1.27;100.00;101539.59;2086334;28;20203;-65
2024/01/17 04:26:24;;;;;;;6.13;3.20;;;;;;;1.39;100.00;101548.53;2086453;28;20198;-65
2024/01/17 04:27:24;;;;;;;4.93;3.03;;;;;;;1.46;100.00;101551.50;2085336;28;20248;-65
2024/01/17 04:28:25;;;;;;;5.07;3.07;;;;;;;1.46;100.00;101550.69;2084214;28;20197;-65
2024/01/17 04:29:25;;;;;;;6.30;3.37;;;;;;;1.48;100.00;101546.47;2085967;28;20333;-65
2024/01/17 04:30:26;;;;;;;7.93;3.77;;;;;;;0.10;100.00;101332.00;2086537;28;20196;-65
2024/01/17 04:31:30;;;;;;;10.13;3.73;;;;;;;1.49;100.00;101574.56;2084948;28;20203;-65
2024/01/17 04:32:35;;;;;;;5.10;3.22;;;;;;;1.49;100.00;101545.31;2084883;28;20551;-65
2024/01/17 04:33:35;;;;;;;6.10;3.70;;;;;;;1.44;100.00;101547.50;2086058;28;20276;-65
2024/01/17 04:34:37;;;;;;;4.97;3.27;;;;;;;0.59;100.00;101413.31;2086120;28;20202;-65
2024/01/17 04:35:38;;;;;;;7.43;3.33;;;;;;;1.47;100.00;101552.25;2085997;28;20236;-65
2024/01/17 04:36:38;;;;;;;3.37;2.60;;;;;;;1.47;100.00;101552.25;2086436;28;20240;-65
2024/01/17 04:37:39;;;;;;;7.87;3.53;;;;;;;1.43;100.00;101549.44;2086993;28;20687;-65
2024/01/17 04:38:40;;;;;;;7.60;3.20;;;;;;;1.44;100.00;101551.03;2085616;28;20239;-65
2024/01/17 04:39:41;;;;;;;5.80;3.20;;;;;;;1.44;100.00;101542.81;2086045;28;20667;-65
2024/01/17 04:40:41;;;;;;;5.43;3.20;;;;;;;1.35;100.00;101533.22;2086422;28;20807;-65